sensor_id;sensor_type;location;lat;lon;timestamp;pressure;altitude;pressure_sealevel;temperature;humidity
56400;BME280;42298;53.638;9.876;2023-07-28T00:01:59;99976.19;;;19.91;81.74
56400;BME280;42298;53.638;9.876;2023-07-28T00:04:25;99978.22;;;19.97;82.17
56400;BME280;42298;53.638;9.876;2023-07-28T00:06:50;99975.00;;;19.95;82.04
56400;BME280;42298;53.638;9.876;2023-07-28T00:09:16;99983.47;;;20.02;81.64
56400;BME280;42298;53.638;9.876;2023-07-28T00:11:41;99985.00;;;20.00;81.55
56400;BME280;42298;53.638;9.876;2023-07-28T00:14:06;99981.06;;;20.04;81.02
56400;BME280;42298;53.638;9.876;2023-07-28T00:16:32;99983.06;;;20.07;81.27
56400;BME280;42298;53.638;9.876;2023-07-28T00:18:57;99979.88;;;20.05;81.12
56400;BME280;42298;53.638;9.876;2023-07-28T00:21:22;99963.41;;;19.90;80.83
56400;BME280;42298;53.638;9.876;2023-07-28T00:23:48;99945.72;;;19.68;81.22
56400;BME280;42298;53.638;9.876;2023-07-28T00:26:13;99958.50;;;19.73;81.92
56400;BME280;42298;53.638;9.876;2023-07-28T00:28:38;99963.25;;;19.62;82.08
56400;BME280;42298;53.638;9.876;2023-07-28T00:31:03;99951.59;;;19.53;83.22
56400;BME280;42298;53.638;9.876;2023-07-28T00:33:29;99956.31;;;19.38;84.21
56400;BME280;42298;53.638;9.876;2023-07-28T00:35:54;99954.69;;;19.37;83.76
56400;BME280;42298;53.638;9.876;2023-07-28T00:38:19;99943.13;;;19.35;84.57
56400;BME280;42298;53.638;9.876;2023-07-28T00:40:44;99941.19;;;19.46;84.15
56400;BME280;42298;53.638;9.876;2023-07-28T00:43:10;99944.47;;;19.59;83.98
56400;BME280;42298;53.638;9.876;2023-07-28T00:45:35;99941.72;;;19.66;83.09
56400;BME280;42298;53.638;9.876;2023-07-28T00:48:01;99946.91;;;19.67;82.90
56400;BME280;42298;53.638;9.876;2023-07-28T00:50:27;99944.94;;;19.68;82.69
56400;BME280;42298;53.638;9.876;2023-07-28T00:52:52;99961.38;;;19.80;81.78
56400;BME280;42298;53.638;9.876;2023-07-28T00:55:18;99954.16;;;19.79;82.68
56400;BME280;42298;53.638;9.876;2023-07-28T00:57:44;99967.72;;;19.80;82.09
56400;BME280;42298;53.638;9.876;2023-07-28T01:00:09;99952.94;;;19.76;82.40
56400;BME280;42298;53.638;9.876;2023-07-28T01:02:36;99943.75;;;19.72;82.16
56400;BME280;42298;53.638;9.876;2023-07-28T01:05:02;99934.59;;;19.75;82.35
56400;BME280;42298;53.638;9.876;2023-07-28T01:07:44;99950.25;;;19.90;81.95
56400;BME280;42298;53.638;9.876;2023-07-28T01:10:20;99941.41;;;19.81;82.08
56400;BME280;42298;53.638;9.876;2023-07-28T01:12:47;99945.00;;;19.82;81.79
56400;BME280;42298;53.638;9.876;2023-07-28T01:15:13;99917.38;;;19.66;81.88
56400;BME280;42298;53.638;9.876;2023-07-28T01:17:40;99932.22;;;19.81;81.83
56400;BME280;42298;53.638;9.876;2023-07-28T01:20:06;99936.59;;;19.82;81.73
56400;BME280;42298;53.638;9.876;2023-07-28T01:22:49;99935.00;;;19.81;82.22
56400;BME280;42298;53.638;9.876;2023-07-28T01:25:42;99951.03;;;19.87;82.12
56400;BME280;42298;53.638;9.876;2023-07-28T01:28:09;99937.41;;;19.82;81.55
56400;BME280;42298;53.638;9.876;2023-07-28T01:30:36;99935.81;;;19.81;82.04
56400;BME280;42298;53.638;9.876;2023-07-28T01:33:06;99952.25;;;19.93;81.02
56400;BME280;42298;53.638;9.876;2023-07-28T01:35:31;99941.41;;;19.81;82.00
56400;BME280;42298;53.638;9.876;2023-07-28T01:37:56;99952.19;;;19.83;81.51
56400;BME280;42298;53.638;9.876;2023-07-28T01:40:22;99918.53;;;19.58;82.64
56400;BME280;42298;53.638;9.876;2023-07-28T01:42:47;99924.97;;;19.73;82.00
56400;BME280;42298;53.638;9.876;2023-07-28T01:45:13;99932.56;;;19.72;82.81
56400;BME280;42298;53.638;9.876;2023-07-28T01:47:38;99935.00;;;19.74;82.32
56400;BME280;42298;53.638;9.876;2023-07-28T01:50:03;99943.00;;;19.82;81.31
56400;BME280;42298;53.638;9.876;2023-07-28T01:52:29;99947.00;;;19.81;81.88
56400;BME280;42298;53.638;9.876;2023-07-28T01:54:54;99947.81;;;19.85;81.51
56400;BME280;42298;53.638;9.876;2023-07-28T01:57:20;99937.41;;;19.82;81.68
56400;BME280;42298;53.638;9.876;2023-07-28T01:59:45;99933.38;;;19.73;80.48
56400;BME280;42298;53.638;9.876;2023-07-28T02:02:10;99943.75;;;19.72;82.15
56400;BME280;42298;53.638;9.876;2023-07-28T02:04:36;99955.75;;;19.76;82.20
56400;BME280;42298;53.638;9.876;2023-07-28T02:07:01;99937.72;;;19.67;82.14
56400;BME280;42298;53.638;9.876;2023-07-28T02:09:26;99957.34;;;19.77;81.70
56400;BME280;42298;53.638;9.876;2023-07-28T02:11:52;99972.16;;;19.85;81.54
56400;BME280;42298;53.638;9.876;2023-07-28T02:14:17;99949.34;;;19.76;81.47
56400;BME280;42298;53.638;9.876;2023-07-28T02:16:43;99956.94;;;19.75;80.76
56400;BME280;42298;53.638;9.876;2023-07-28T02:19:08;99966.56;;;19.81;81.65
56400;BME280;42298;53.638;9.876;2023-07-28T02:21:36;99960.13;;;19.74;80.72
56400;BME280;42298;53.638;9.876;2023-07-28T02:24:01;99974.09;;;19.74;81.32
56400;BME280;42298;53.638;9.876;2023-07-28T02:26:26;99960.44;;;19.62;82.27
56400;BME280;42298;53.638;9.876;2023-07-28T02:28:52;99982.88;;;19.72;82.29
56400;BME280;42298;53.638;9.876;2023-07-28T02:31:17;99978.88;;;19.73;82.11
56400;BME280;42298;53.638;9.876;2023-07-28T02:33:42;99984.50;;;19.77;82.44
56400;BME280;42298;53.638;9.876;2023-07-28T02:36:08;99978.03;;;19.66;82.04
56400;BME280;42298;53.638;9.876;2023-07-28T02:38:33;99970.34;;;19.49;82.17
56400;BME280;42298;53.638;9.876;2023-07-28T02:40:59;99978.78;;;19.59;83.32
56400;BME280;42298;53.638;9.876;2023-07-28T02:43:24;99980.44;;;19.67;82.30
56400;BME280;42298;53.638;9.876;2023-07-28T02:45:57;99982.81;;;19.65;82.20
56400;BME280;42298;53.638;9.876;2023-07-28T02:48:23;99992.38;;;19.64;83.21
56400;BME280;42298;53.638;9.876;2023-07-28T02:50:52;100002.75;;;19.60;82.43
56400;BME280;42298;53.638;9.876;2023-07-28T02:53:18;100002.31;;;19.58;82.27
56400;BME280;42298;53.638;9.876;2023-07-28T02:55:44;100004.34;;;19.61;82.87
56400;BME280;42298;53.638;9.876;2023-07-28T02:58:11;100005.09;;;19.58;82.21
56400;BME280;42298;53.638;9.876;2023-07-28T03:00:44;100003.06;;;19.52;82.10
56400;BME280;42298;53.638;9.876;2023-07-28T03:03:10;99998.59;;;19.40;82.34
56400;BME280;42298;53.638;9.876;2023-07-28T03:05:37;100000.13;;;19.34;83.46
56400;BME280;42298;53.638;9.876;2023-07-28T03:08:03;100009.78;;;19.44;83.11
56400;BME280;42298;53.638;9.876;2023-07-28T03:10:28;100008.59;;;19.45;82.73
56400;BME280;42298;53.638;9.876;2023-07-28T03:12:54;100002.59;;;19.43;82.99
56400;BME280;42298;53.638;9.876;2023-07-28T03:15:20;100015.03;;;19.49;82.89
56400;BME280;42298;53.638;9.876;2023-07-28T03:17:47;100015.47;;;19.58;82.74
56400;BME280;42298;53.638;9.876;2023-07-28T03:20:12;100023.13;;;19.64;82.47
56400;BME280;42298;53.638;9.876;2023-07-28T03:22:37;100011.94;;;19.64;81.48
56400;BME280;42298;53.638;9.876;2023-07-28T03:25:03;100011.03;;;19.53;82.05
56400;BME280;42298;53.638;9.876;2023-07-28T03:27:28;99996.69;;;19.51;82.84
56400;BME280;42298;53.638;9.876;2023-07-28T03:29:53;100004.34;;;19.61;82.15
56400;BME280;42298;53.638;9.876;2023-07-28T03:32:19;100011.41;;;19.48;81.67
56400;BME280;42298;53.638;9.876;2023-07-28T03:34:44;100001.03;;;19.45;82.97
56400;BME280;42298;53.638;9.876;2023-07-28T03:37:09;100008.63;;;19.48;83.30
56400;BME280;42298;53.638;9.876;2023-07-28T03:39:35;100006.66;;;19.49;83.28
56400;BME280;42298;53.638;9.876;2023-07-28T03:42:00;100025.47;;;19.62;82.78
56400;BME280;42298;53.638;9.876;2023-07-28T03:44:26;100016.47;;;19.83;81.69
56400;BME280;42298;53.638;9.876;2023-07-28T03:46:51;100026.06;;;19.85;82.13
56400;BME280;42298;53.638;9.876;2023-07-28T03:49:16;100022.84;;;19.83;81.30
56400;BME280;42298;53.638;9.876;2023-07-28T03:51:42;100017.19;;;19.69;81.35
56400;BME280;42298;53.638;9.876;2023-07-28T03:54:07;100000.28;;;19.55;81.49
56400;BME280;42298;53.638;9.876;2023-07-28T03:56:32;100016.31;;;19.62;82.25
56400;BME280;42298;53.638;9.876;2023-07-28T03:58:57;100037.13;;;19.71;82.43
56400;BME280;42298;53.638;9.876;2023-07-28T04:01:23;100042.41;;;19.80;82.14
56400;BME280;42298;53.638;9.876;2023-07-28T04:03:49;100033.16;;;19.72;81.66
56400;BME280;42298;53.638;9.876;2023-07-28T04:06:15;100041.91;;;19.67;81.65
56400;BME280;42298;53.638;9.876;2023-07-28T04:08:42;100037.91;;;19.68;82.23
56400;BME280;42298;53.638;9.876;2023-07-28T04:11:07;100041.94;;;19.71;82.15
56400;BME280;42298;53.638;9.876;2023-07-28T04:13:33;100046.75;;;19.74;81.73
56400;BME280;42298;53.638;9.876;2023-07-28T04:15:59;100047.06;;;19.65;81.52
56400;BME280;42298;53.638;9.876;2023-07-28T04:18:24;100058.69;;;19.74;82.02
56400;BME280;42298;53.638;9.876;2023-07-28T04:20:50;100051.88;;;19.68;81.57
56400;BME280;42298;53.638;9.876;2023-07-28T04:23:15;100060.31;;;19.75;81.87
56400;BME280;42298;53.638;9.876;2023-07-28T04:25:40;100036.66;;;19.62;81.70
56400;BME280;42298;53.638;9.876;2023-07-28T04:28:05;100045.16;;;19.76;81.38
56400;BME280;42298;53.638;9.876;2023-07-28T04:30:31;100051.09;;;19.68;81.17
56400;BME280;42298;53.638;9.876;2023-07-28T04:32:56;100034.63;;;19.56;81.42
56400;BME280;42298;53.638;9.876;2023-07-28T04:35:21;100065.06;;;19.68;82.00
56400;BME280;42298;53.638;9.876;2023-07-28T04:37:47;100045.81;;;19.56;82.19
56400;BME280;42298;53.638;9.876;2023-07-28T04:40:12;100059.84;;;19.66;82.11
56400;BME280;42298;53.638;9.876;2023-07-28T04:42:38;100070.66;;;19.68;82.29
56400;BME280;42298;53.638;9.876;2023-07-28T04:45:03;100061.41;;;19.60;81.52
56400;BME280;42298;53.638;9.876;2023-07-28T04:47:29;100049.56;;;19.30;82.83
56400;BME280;42298;53.638;9.876;2023-07-28T04:49:54;100064.88;;;19.47;83.54
56400;BME280;42298;53.638;9.876;2023-07-28T04:52:19;100061.75;;;19.55;83.06
56400;BME280;42298;53.638;9.876;2023-07-28T04:54:45;100061.34;;;19.57;82.75
56400;BME280;42298;53.638;9.876;2023-07-28T04:57:10;100067.84;;;19.68;82.17
56400;BME280;42298;53.638;9.876;2023-07-28T04:59:35;100083.06;;;19.77;81.25
56400;BME280;42298;53.638;9.876;2023-07-28T05:02:00;100066.63;;;19.65;81.43
56400;BME280;42298;53.638;9.876;2023-07-28T05:04:26;100076.63;;;19.66;81.14
56400;BME280;42298;53.638;9.876;2023-07-28T05:06:51;100075.75;;;19.62;81.94
56400;BME280;42298;53.638;9.876;2023-07-28T05:09:17;100072.09;;;19.51;81.51
56400;BME280;42298;53.638;9.876;2023-07-28T05:11:43;100082.50;;;19.54;82.23
56400;BME280;42298;53.638;9.876;2023-07-28T05:14:08;100084.09;;;19.55;82.01
56400;BME280;42298;53.638;9.876;2023-07-28T05:16:34;100093.00;;;19.68;82.80
56400;BME280;42298;53.638;9.876;2023-07-28T05:18:59;100072.19;;;19.65;82.49
56400;BME280;42298;53.638;9.876;2023-07-28T05:21:25;100093.13;;;19.85;81.90
56400;BME280;42298;53.638;9.876;2023-07-28T05:23:50;100091.94;;;19.86;81.14
56400;BME280;42298;53.638;9.876;2023-07-28T05:26:16;100088.28;;;19.79;80.62
56400;BME280;42298;53.638;9.876;2023-07-28T05:28:41;100097.16;;;19.91;80.57
56400;BME280;42298;53.638;9.876;2023-07-28T05:31:07;100085.47;;;19.75;81.07
56400;BME280;42298;53.638;9.876;2023-07-28T05:33:32;100109.94;;;19.89;80.96
56400;BME280;42298;53.638;9.876;2023-07-28T05:36:03;100105.91;;;19.86;80.85
56400;BME280;42298;53.638;9.876;2023-07-28T05:38:29;100108.00;;;19.96;80.61
56400;BME280;42298;53.638;9.876;2023-07-28T05:41:01;100089.59;;;19.95;80.82
56400;BME280;42298;53.638;9.876;2023-07-28T05:43:28;100106.84;;;20.04;80.22
56400;BME280;42298;53.638;9.876;2023-07-28T05:45:54;100106.91;;;20.11;80.39
56400;BME280;42298;53.638;9.876;2023-07-28T05:48:20;100107.69;;;20.12;80.07
56400;BME280;42298;53.638;9.876;2023-07-28T05:50:45;100096.09;;;20.06;79.92
56400;BME280;42298;53.638;9.876;2023-07-28T05:53:11;100115.81;;;20.24;79.92
56400;BME280;42298;53.638;9.876;2023-07-28T05:55:36;100118.59;;;20.24;79.02
56400;BME280;42298;53.638;9.876;2023-07-28T05:58:01;100121.00;;;20.25;78.93
56400;BME280;42298;53.638;9.876;2023-07-28T06:00:26;100110.97;;;20.17;79.70
56400;BME280;42298;53.638;9.876;2023-07-28T06:02:53;100124.66;;;20.33;80.01
56400;BME280;42298;53.638;9.876;2023-07-28T06:05:18;100109.50;;;20.34;78.84
56400;BME280;42298;53.638;9.876;2023-07-28T06:07:44;100125.94;;;20.46;78.74
56400;BME280;42298;53.638;9.876;2023-07-28T06:10:09;100128.75;;;20.49;78.90
56400;BME280;42298;53.638;9.876;2023-07-28T06:12:34;100133.56;;;20.52;78.79
56400;BME280;42298;53.638;9.876;2023-07-28T06:15:01;100130.38;;;20.50;78.44
56400;BME280;42298;53.638;9.876;2023-07-28T06:17:26;100135.97;;;20.54;79.16
56400;BME280;42298;53.638;9.876;2023-07-28T06:19:53;100131.53;;;20.46;78.55
56400;BME280;42298;53.638;9.876;2023-07-28T06:22:18;100144.78;;;20.59;79.20
56400;BME280;42298;53.638;9.876;2023-07-28T06:24:44;100137.97;;;20.57;78.47
56400;BME280;42298;53.638;9.876;2023-07-28T06:27:09;100156.78;;;20.60;78.48
56400;BME280;42298;53.638;9.876;2023-07-28T06:29:35;100145.63;;;20.67;78.54
56400;BME280;42298;53.638;9.876;2023-07-28T06:32:00;100144.78;;;20.59;77.74
56400;BME280;42298;53.638;9.876;2023-07-28T06:34:26;100150.38;;;20.59;77.75
56400;BME280;42298;53.638;9.876;2023-07-28T06:36:51;100142.41;;;20.61;78.12
56400;BME280;42298;53.638;9.876;2023-07-28T06:39:17;100156.03;;;20.66;78.08
56400;BME280;42298;53.638;9.876;2023-07-28T06:41:42;100161.66;;;20.73;78.05
56400;BME280;42298;53.638;9.876;2023-07-28T06:44:08;100162.09;;;20.75;78.12
56400;BME280;42298;53.638;9.876;2023-07-28T06:46:35;100147.28;;;20.75;78.14
56400;BME280;42298;53.638;9.876;2023-07-28T06:49:00;100147.31;;;20.78;77.59
56400;BME280;42298;53.638;9.876;2023-07-28T06:51:25;100134.47;;;20.70;77.17
56400;BME280;42298;53.638;9.876;2023-07-28T06:53:51;100152.84;;;20.71;78.16
56400;BME280;42298;53.638;9.876;2023-07-28T06:56:16;100144.06;;;20.69;78.40
56400;BME280;42298;53.638;9.876;2023-07-28T06:58:42;100136.47;;;20.73;76.38
56400;BME280;42298;53.638;9.876;2023-07-28T07:01:07;100158.88;;;20.80;75.95
56400;BME280;42298;53.638;9.876;2023-07-28T07:03:36;100156.88;;;20.77;76.54
56400;BME280;42298;53.638;9.876;2023-07-28T07:06:01;100176.47;;;20.77;76.27
56400;BME280;42298;53.638;9.876;2023-07-28T07:08:31;100162.03;;;20.65;76.28
56400;BME280;42298;53.638;9.876;2023-07-28T07:10:57;100177.69;;;20.83;75.60
56400;BME280;42298;53.638;9.876;2023-07-28T07:13:23;100180.94;;;20.89;76.06
56400;BME280;42298;53.638;9.876;2023-07-28T07:15:48;100173.34;;;20.93;76.86
56400;BME280;42298;53.638;9.876;2023-07-28T07:18:13;100190.59;;;20.99;76.06
56400;BME280;42298;53.638;9.876;2023-07-28T07:20:39;100189.03;;;21.05;75.46
56400;BME280;42298;53.638;9.876;2023-07-28T07:23:04;100197.09;;;21.13;75.99
56400;BME280;42298;53.638;9.876;2023-07-28T07:25:30;100194.69;;;21.15;74.30
56400;BME280;42298;53.638;9.876;2023-07-28T07:27:55;100212.28;;;21.16;74.77
56400;BME280;42298;53.638;9.876;2023-07-28T07:30:21;100215.09;;;21.16;74.46
56400;BME280;42298;53.638;9.876;2023-07-28T07:32:47;100211.44;;;21.05;73.64
56400;BME280;42298;53.638;9.876;2023-07-28T07:35:12;100204.25;;;21.04;75.00
56400;BME280;42298;53.638;9.876;2023-07-28T07:37:38;100203.03;;;21.01;75.21
56400;BME280;42298;53.638;9.876;2023-07-28T07:40:05;100225.91;;;21.17;74.84
56400;BME280;42298;53.638;9.876;2023-07-28T07:42:48;100219.13;;;21.22;74.71
56400;BME280;42298;53.638;9.876;2023-07-28T07:45:14;100219.16;;;21.25;74.23
56400;BME280;42298;53.638;9.876;2023-07-28T07:47:40;100230.00;;;21.37;74.47
56400;BME280;42298;53.638;9.876;2023-07-28T07:50:07;100228.78;;;21.35;75.03
56400;BME280;42298;53.638;9.876;2023-07-28T07:52:37;100240.41;;;21.37;74.58
56400;BME280;42298;53.638;9.876;2023-07-28T07:55:03;100226.75;;;21.32;74.70
56400;BME280;42298;53.638;9.876;2023-07-28T07:57:29;100233.97;;;21.29;73.12
56400;BME280;42298;53.638;9.876;2023-07-28T07:59:57;100236.75;;;21.29;74.87
56400;BME280;42298;53.638;9.876;2023-07-28T08:02:23;100245.13;;;21.26;75.06
56400;BME280;42298;53.638;9.876;2023-07-28T08:04:48;100241.16;;;21.30;73.96
56400;BME280;42298;53.638;9.876;2023-07-28T08:07:13;100226.38;;;21.30;74.40
56400;BME280;42298;53.638;9.876;2023-07-28T08:09:44;100237.94;;;21.25;74.41
56400;BME280;42298;53.638;9.876;2023-07-28T08:12:09;100233.97;;;21.29;74.22
56400;BME280;42298;53.638;9.876;2023-07-28T08:14:34;100236.38;;;21.38;74.16
56400;BME280;42298;53.638;9.876;2023-07-28T08:16:59;100244.44;;;21.43;74.46
56400;BME280;42298;53.638;9.876;2023-07-28T08:19:25;100244.00;;;21.34;73.66
56400;BME280;42298;53.638;9.876;2023-07-28T08:21:50;100258.75;;;21.27;74.28
56400;BME280;42298;53.638;9.876;2023-07-28T08:24:16;100247.53;;;21.20;74.06
56400;BME280;42298;53.638;9.876;2023-07-28T08:26:41;100263.59;;;21.34;73.71
56400;BME280;42298;53.638;9.876;2023-07-28T08:29:06;100255.19;;;21.34;73.88
56400;BME280;42298;53.638;9.876;2023-07-28T08:31:31;100266.47;;;21.48;73.55
56400;BME280;42298;53.638;9.876;2023-07-28T08:33:57;100279.69;;;21.54;73.75
56400;BME280;42298;53.638;9.876;2023-07-28T08:36:22;100273.28;;;21.50;73.31
56400;BME280;42298;53.638;9.876;2023-07-28T08:38:47;100273.28;;;21.57;73.62
56400;BME280;42298;53.638;9.876;2023-07-28T08:41:14;100286.16;;;21.65;73.81
56400;BME280;42298;53.638;9.876;2023-07-28T08:43:39;100284.53;;;21.68;72.82
56400;BME280;42298;53.638;9.876;2023-07-28T08:46:05;100288.53;;;21.70;74.18
56400;BME280;42298;53.638;9.876;2023-07-28T08:48:30;100285.78;;;21.74;73.37
56400;BME280;42298;53.638;9.876;2023-07-28T08:50:55;100282.22;;;21.84;72.73
56400;BME280;42298;53.638;9.876;2023-07-28T08:53:21;100283.41;;;21.83;72.01
56400;BME280;42298;53.638;9.876;2023-07-28T08:55:48;100292.25;;;21.88;72.26
56400;BME280;42298;53.638;9.876;2023-07-28T08:58:20;100284.22;;;21.83;72.48
56400;BME280;42298;53.638;9.876;2023-07-28T09:00:47;100292.69;;;22.01;71.57
56400;BME280;42298;53.638;9.876;2023-07-28T09:03:15;100291.91;;;22.14;70.93
56400;BME280;42298;53.638;9.876;2023-07-28T09:05:42;100295.53;;;22.25;71.39
56400;BME280;42298;53.638;9.876;2023-07-28T09:08:08;100287.84;;;21.94;69.53
56400;BME280;42298;53.638;9.876;2023-07-28T09:10:48;100304.72;;;22.01;70.70
56400;BME280;42298;53.638;9.876;2023-07-28T09:13:24;100289.09;;;22.11;70.17
56400;BME280;42298;53.638;9.876;2023-07-28T09:16:06;100299.53;;;22.21;69.78
56400;BME280;42298;53.638;9.876;2023-07-28T09:18:34;100283.88;;;22.13;69.28
56400;BME280;42298;53.638;9.876;2023-07-28T09:20:59;100298.72;;;22.27;70.42
56400;BME280;42298;53.638;9.876;2023-07-28T09:23:31;100309.56;;;22.39;69.46
56400;BME280;42298;53.638;9.876;2023-07-28T09:25:59;100303.97;;;22.46;68.84
56400;BME280;42298;53.638;9.876;2023-07-28T09:28:39;100311.22;;;22.51;69.32
56400;BME280;42298;53.638;9.876;2023-07-28T09:31:05;100299.59;;;22.52;69.52
56400;BME280;42298;53.638;9.876;2023-07-28T09:33:35;100308.00;;;22.56;68.90
56400;BME280;42298;53.638;9.876;2023-07-28T09:36:12;100295.94;;;22.38;69.52
56400;BME280;42298;53.638;9.876;2023-07-28T09:38:39;100299.97;;;22.47;69.38
56400;BME280;42298;53.638;9.876;2023-07-28T09:41:06;100313.63;;;22.63;70.39
56400;BME280;42298;53.638;9.876;2023-07-28T09:43:35;100313.63;;;22.70;68.44
56400;BME280;42298;53.638;9.876;2023-07-28T09:46:05;100315.22;;;22.75;67.93
56400;BME280;42298;53.638;9.876;2023-07-28T09:48:32;100313.63;;;22.70;68.12
56400;BME280;42298;53.638;9.876;2023-07-28T09:51:01;100300.38;;;22.64;69.16
56400;BME280;42298;53.638;9.876;2023-07-28T09:53:28;100326.84;;;22.70;68.43
56400;BME280;42298;53.638;9.876;2023-07-28T09:55:54;100309.19;;;22.69;68.28
56400;BME280;42298;53.638;9.876;2023-07-28T09:58:21;100295.97;;;22.66;68.53
56400;BME280;42298;53.638;9.876;2023-07-28T10:00:48;100297.56;;;22.64;68.34
56400;BME280;42298;53.638;9.876;2023-07-28T10:03:14;100307.59;;;22.75;68.70
56400;BME280;42298;53.638;9.876;2023-07-28T10:05:41;100315.59;;;22.87;68.58
56400;BME280;42298;53.638;9.876;2023-07-28T10:08:07;100299.56;;;22.84;68.07
56400;BME280;42298;53.638;9.876;2023-07-28T10:10:34;100316.81;;;22.90;68.13
56400;BME280;42298;53.638;9.876;2023-07-28T10:13:00;100310.00;;;22.87;67.21
56400;BME280;42298;53.638;9.876;2023-07-28T10:15:30;100301.97;;;22.93;66.85
56400;BME280;42298;53.638;9.876;2023-07-28T10:17:57;100301.97;;;22.96;67.36
56400;BME280;42298;53.638;9.876;2023-07-28T10:20:35;100328.81;;;23.15;68.43
56400;BME280;42298;53.638;9.876;2023-07-28T10:23:17;100331.22;;;23.20;68.04
56400;BME280;42298;53.638;9.876;2023-07-28T10:25:45;100327.22;;;23.14;67.05
56400;BME280;42298;53.638;9.876;2023-07-28T10:28:40;100327.22;;;23.10;66.43
56400;BME280;42298;53.638;9.876;2023-07-28T10:31:10;100330.44;;;23.09;66.92
56400;BME280;42298;53.638;9.876;2023-07-28T10:33:36;100343.28;;;23.17;67.45
56400;BME280;42298;53.638;9.876;2023-07-28T10:36:39;100340.88;;;23.15;67.62
56400;BME280;42298;53.638;9.876;2023-07-28T10:39:15;100339.66;;;23.16;66.73
56400;BME280;42298;53.638;9.876;2023-07-28T10:44:26;100337.66;;;23.24;67.75
56400;BME280;42298;53.638;9.876;2023-07-28T10:46:52;100354.50;;;23.38;67.43
56400;BME280;42298;53.638;9.876;2023-07-28T10:49:17;100357.28;;;23.48;67.43
56400;BME280;42298;53.638;9.876;2023-07-28T10:51:43;100348.84;;;23.41;66.29
56400;BME280;42298;53.638;9.876;2023-07-28T10:54:08;100345.25;;;23.41;66.16
56400;BME280;42298;53.638;9.876;2023-07-28T10:56:33;100348.00;;;23.55;67.11
56400;BME280;42298;53.638;9.876;2023-07-28T10:59:00;100336.44;;;23.35;65.44
56400;BME280;42298;53.638;9.876;2023-07-28T11:01:39;100357.28;;;23.45;65.78
56400;BME280;42298;53.638;9.876;2023-07-28T11:04:12;100364.91;;;23.51;65.83
56400;BME280;42298;53.638;9.876;2023-07-28T11:06:41;100355.66;;;23.54;65.20
56400;BME280;42298;53.638;9.876;2023-07-28T11:09:11;100352.41;;;23.63;65.51
56400;BME280;42298;53.638;9.876;2023-07-28T11:11:37;100323.13;;;23.53;64.54
56400;BME280;42298;53.638;9.876;2023-07-28T11:14:05;100352.75;;;23.75;66.11
56400;BME280;42298;53.638;9.876;2023-07-28T11:16:33;100349.50;;;23.87;65.81
56400;BME280;42298;53.638;9.876;2023-07-28T11:19:06;100352.72;;;23.86;64.24
56400;BME280;42298;53.638;9.876;2023-07-28T11:21:36;100321.50;;;23.59;64.56
56400;BME280;42298;53.638;9.876;2023-07-28T11:24:03;100339.94;;;23.64;65.50
56400;BME280;42298;53.638;9.876;2023-07-28T11:26:28;100348.75;;;23.69;65.86
56400;BME280;42298;53.638;9.876;2023-07-28T11:28:53;100354.38;;;23.76;65.46
56400;BME280;42298;53.638;9.876;2023-07-28T11:31:23;100344.34;;;23.72;64.92
56400;BME280;42298;53.638;9.876;2023-07-28T11:33:48;100333.47;;;23.74;65.52
56400;BME280;42298;53.638;9.876;2023-07-28T11:36:22;100351.13;;;23.85;65.11
56400;BME280;42298;53.638;9.876;2023-07-28T11:38:47;100344.69;;;23.88;65.90
56400;BME280;42298;53.638;9.876;2023-07-28T11:41:14;100342.22;;;23.93;64.70
56400;BME280;42298;53.638;9.876;2023-07-28T11:43:40;100369.16;;;24.05;64.11
56400;BME280;42298;53.638;9.876;2023-07-28T11:46:36;100373.56;;;24.09;63.48
56400;BME280;42298;53.638;9.876;2023-07-28T11:51:37;100371.16;;;24.08;63.03
56400;BME280;42298;53.638;9.876;2023-07-28T11:54:04;100380.78;;;24.07;63.45
56400;BME280;42298;53.638;9.876;2023-07-28T11:56:29;100384.34;;;24.14;64.52
56400;BME280;42298;53.638;9.876;2023-07-28T11:58:55;100376.69;;;24.22;64.71
56400;BME280;42298;53.638;9.876;2023-07-28T12:01:21;100387.47;;;24.34;63.22
56400;BME280;42298;53.638;9.876;2023-07-28T12:03:46;100374.22;;;24.31;63.40
56400;BME280;42298;53.638;9.876;2023-07-28T12:06:11;100372.66;;;24.23;63.04
56400;BME280;42298;53.638;9.876;2023-07-28T12:08:37;100390.34;;;24.23;63.23
56400;BME280;42298;53.638;9.876;2023-07-28T12:11:02;100396.00;;;24.16;63.01
56400;BME280;42298;53.638;9.876;2023-07-28T12:13:28;100398.06;;;24.12;63.26
56400;BME280;42298;53.638;9.876;2023-07-28T12:15:54;100400.88;;;24.12;63.55
56400;BME280;42298;53.638;9.876;2023-07-28T12:18:19;100397.25;;;24.12;63.63
56400;BME280;42298;53.638;9.876;2023-07-28T12:20:46;100406.47;;;24.16;63.58
56400;BME280;42298;53.638;9.876;2023-07-28T12:23:21;100402.47;;;24.17;63.14
56400;BME280;42298;53.638;9.876;2023-07-28T12:25:48;100386.00;;;24.08;64.18
56400;BME280;42298;53.638;9.876;2023-07-28T12:28:14;100399.13;;;24.32;63.77
56400;BME280;42298;53.638;9.876;2023-07-28T12:30:41;100399.06;;;24.50;64.52
56400;BME280;42298;53.638;9.876;2023-07-28T12:33:07;100393.69;;;24.73;62.60
56400;BME280;42298;53.638;9.876;2023-07-28T12:35:33;100407.66;;;24.87;62.45
56400;BME280;42298;53.638;9.876;2023-07-28T12:38:04;100413.66;;;24.89;61.72
56400;BME280;42298;53.638;9.876;2023-07-28T12:40:30;100394.44;;;24.77;62.64
56400;BME280;42298;53.638;9.876;2023-07-28T12:42:56;100406.13;;;24.76;62.78
56400;BME280;42298;53.638;9.876;2023-07-28T12:45:22;100413.31;;;24.87;62.61
56400;BME280;42298;53.638;9.876;2023-07-28T12:47:53;100401.69;;;24.78;62.36
56400;BME280;42298;53.638;9.876;2023-07-28T12:50:20;100409.75;;;24.76;62.81
56400;BME280;42298;53.638;9.876;2023-07-28T12:52:47;100430.63;;;24.86;61.89
56400;BME280;42298;53.638;9.876;2023-07-28T12:55:13;100419.44;;;24.72;62.37
56400;BME280;42298;53.638;9.876;2023-07-28T12:57:38;100409.44;;;24.64;63.43